Terminal Aerodrome Forecast
Issued by NWS

Current Version | Previous Version | Graphics & Text | Print | Product List | Glossary On
Versions: 1 2 3 4 5 6 7 8 9 10 11 12 13 14 15 16 17 18 19 20 21 22
000
FTUS41 KRLX 231137
TAFCKB
TAF
KCKB 231137Z 2312/2412 04003KT P6SM BKN150
     FM231600 VRB03KT P6SM OVC060
     FM240600 00000KT 6SM BR BKN050=

USA.gov is the U.S. government's official web portal to all federal, state and local government web resources and services.